Elk City, OK (73644)

10:05 PM CDT on May 28, 2015 (GMT -0500)
Clinton-Sherman | | Change Station
CLOSE
Current Station
Airport
Location: Clinton-Sherman,
Elevation: 1923 ft
Nearby Weather Stations
Active Advisory: Flash Flood Watch

Elev 1923 ft 35.34 °N, 99.20 °W | Updated 12 minutes ago

Clear
Clear
67 °F
Feels Like 67 °F
N
5
Wind Variable Wind from East

Today
High -- | Low -- °F
--% Chance of Precip.
Yesterday
High -- | Low -- °F
Precip. -- in
6:25 AM 8:44 PM
Waxing Gibbous, 80% visible
Pressure 29.90 in
Visibility 10.0 miles
Clouds Clear
Dew Point 61 °F
Humidity 81%
Rainfall 0.16 in
Snow Depth Not available.
UV 0 out of 12
Pollen 6.60 out of 12
Air Quality Not available.
Flu Activity Sporadic
METAR KCSM 290253Z 09004KT 10SM CLR 19/16 A2996 RMK AO2 SLP125 60000 T01940161 53019

More Conditions Fewer Conditions

Pressure 29.90 in
Visibility 10.0 miles
Clouds Clear
Dew Point 61 °F
Humidity 81%
Rainfall 0.16 in
Snow Depth Not available.
UV 0 out of 12
Pollen 6.60 out of 12
Air Quality Not available.
Flu Activity Sporadic
METAR KCSM 290253Z 09004KT 10SM CLR 19/16 A2996 RMK AO2 SLP125 60000 T01940161 53019

More Conditions Fewer Conditions

10-Day Weather Forecast

Almanac

Astronomy

May. 28, 2015 Rise Set
Actual Time
Civil Twilight
Nautical Twilight
Astronomical Twilight
Moon
Length of Visible Light
Length of Day
Tomorrow will be .
, % of the Moon is Illuminated

Today's Extremes

State Highs State Lows

Community

WunderPhotos

Upload Photos

1,825,149 photos uploaded!

WunderBlogs® & News

Nearby

Air Quality

  Air Quality AQ Index Pollutant
Not available.

Snow Depth

Station Depth Elevation

Earthquake Activity

City Distance Mag. Time & Date
Minimum magnitude displayed is 2.5.

Coastal Water Temperatures

Place Temperature

Stations

Nearby Weather Stations

Station Location Temp. Windchill Dew Point Humidity Wind Precip. Elev Updated Type
                   
Flash Flood Watch
Statement as of 3:01 PM CDT on May 28, 2015

... Flash Flood Watch remains in effect through Sunday morning...

The Flash Flood Watch continues for

* all of northern... western... .central... and southern Oklahoma and
western North Texas.

* Through Sunday morning

* Thursday afternoon and night... best chance for heavy rainfall
southwest Oklahoma and western North Texas. Locally 1 to 2
inches of rain possible with higher amounts.

* Friday through Saturday night... best chance for heavy rainfall
will reside from northern through central... and southern
Oklahoma... and western North Texas. Locally 1 to 2 inches of
rain possible with higher amounts.

* Widespread 1 to 3 inch rainfall totals are expected through
Saturday night... with locally higher amounts exceeding 5 inches
possible.

Precautionary/preparedness actions...

Monitor weather forecasts and information. Make plans to get to
higher ground if flooding happens.



Austin